Airport View

Enter AWOS ICAO identifier for current METAR.

ex. KFNL

KINT 202354Z 00000KT 10SM CLR 22/13 A3027 RMK AO2 SLP246 T02170128 10261 20217 53004

21 Sep 2019 00:44

Phone: 336-661-3096

Other Area AWOS: KGSO - KEXX - KMWK - KSIF

TAF KINT 202320Z 2100/2124 21004KT P6SM SCT250